This is the latest recevied weather packets stored in our database for station/object PU5FJO-13. If no packets are shown the sender has not sent any weather packets the latest 10 day(s).
| Time | Temp. | Humidity | Pressure | Rain* | Wind** | Luminosity | Snow |
|---|---|---|---|---|---|---|---|
| 1778016374 | 23.89° C | 73% | 1018.7 hPa | - | - | - | - |
| 1778015774 | 23.89° C | 73% | 1018.5 hPa | - | - | - | - |
| 1778015174 | 24.44° C | 71% | 1018.5 hPa | - | - | - | - |
| 1778014574 | 24.44° C | 71% | 1018.3 hPa | - | - | - | - |
| 1778013974 | 25.56° C | 69% | 1018.3 hPa | - | - | - | - |
| 1778013374 | 26.11° C | 69% | 1018.3 hPa | - | - | - | - |
| 1778012776 | 25.56° C | 71% | 1018.1 hPa | - | - | - | - |
| 1778012174 | 26.11° C | 68% | 1018.1 hPa | - | - | - | - |
| 1778011574 | 26.11° C | 68% | 1018.1 hPa | - | - | - | - |
| 1778010974 | 26.67° C | 67% | 1018 hPa | - | - | - | - |
| 1778010374 | 26.11° C | 68% | 1017.9 hPa | - | - | - | - |
| 1778009774 | 26.67° C | 69% | 1017.9 hPa | - | - | - | - |
| 1778009174 | 27.22° C | 65% | 1017.8 hPa | - | - | - | - |
| 1778008574 | 26.67° C | 66% | 1017.7 hPa | - | - | - | - |
| 1778007974 | 26.67° C | 66% | 1017.7 hPa | - | - | - | - |
| 1778007374 | 26.67° C | 65% | 1017.7 hPa | - | - | - | - |
| 1778006774 | 27.22° C | 64% | 1017.7 hPa | - | - | - | - |
| 1778006174 | 27.22° C | 64% | 1017.7 hPa | - | - | - | - |
| 1778005574 | 27.22° C | 64% | 1017.8 hPa | - | - | - | - |
| 1778004974 | 27.78° C | 62% | 1017.8 hPa | - | - | - | - |
| 1778004374 | 27.22° C | 62% | 1017.8 hPa | - | - | - | - |
| 1778003774 | 27.22° C | 62% | 1017.6 hPa | - | - | - | - |
| 1778003174 | 26.67° C | 63% | 1017.7 hPa | - | - | - | - |
| 1778002574 | 27.78° C | 60% | 1017.7 hPa | - | - | - | - |
| 1778001974 | 27.78° C | 60% | 1017.8 hPa | - | - | - | - |
* Rain since midnight (hover to see other rain measurements)
** Current wind speed in m/s (hover to see current wind gust speed)